Strona główna
METAR-TAF:

METAR-TAF

Lotnisko :

Port lotniczy Grenoble-Isère

Grenoble, Francja

Szerokość geograficzna: 45-22N, Długość geograficzna: 005-20E, wysokość: 384 m

Aktualna obserwacja pogody

Raport powstał 28 minut temu, godzina 06:30 UTC
Wiatr 4 kt od wschód, zmienny między północny wschód i wschodnio-południowy wschód
Temperatura 16°C
Wilgotność 68%
Ciśnienie 1016 hPa
Widzialność 10 km lub więcej
Brak chmur poniżej 1500 m i brak chmur cumulonimbus

METAR: LFLS 310630Z AUTO 08004KT 050V110 CAVOK 16/10 Q1016 NOSIG

czas: 08:58 (06:58 UTC)

Prognoza

Raport powstał 4 godziny i 58 minut temu, godzina 02:00 UTC
Prognoza ważna od 31 godzina 03 UTC do 01 godzina 03 UTC
Wiatr 3 kt z kierunków zmiennych
Widzialność 10 km lub więcej
Brak chmur poniżej 1500 m i brak chmur cumulonimbus
Przejściowo
od 31 godzina 03 UTC do 31 godzina 09 UTC
Wiatr 5 kt od wschód

TAF: LFLS 310200Z 3103/0103 VRB03KT CAVOK TEMPO 3103/3109 09005KT

Obserwacja i prognoza pogody dla ponad 4000 lotnisk (raport METAR i TAF).

Dostępne stacje oznaczono żółtymi i czerwonymi punktami na mapie.

Najedź kursorem aby zobaczyć nazwę stacji.

Kliknij aby zobaczyć obserwacje i prognozy pogody.

Aby zmienić mapę: kliknij na zielony przycisk z czarnym krzyżykiem, aby powiększyć; na zielony przycisk z myślnikiem, aby pomniejszyć; na zielone strzałki, aby przejść do map sąsiednich.


METAR-TAF: